Time;durP1;ratioP1;P1;durP2;ratioP2;P2;SDS_P1;SDS_P2;PMS_P1;PMS_P2;Temp;Humidity;BMP_temperature;BMP_pressure;BME280_temperature;BME280_humidity;BME280_pressure;Samples;Min_cycle;Max_cycle;Signal;HPM_P1;HPM_P2
2022/04/06 00:00:08;;;;;;;6.40;2.35;;;;;;;;;;5094401;28;20030;-78
2022/04/06 00:02:34;;;;;;;4.75;2.58;;;;;;;;;;5058814;28;20020;-77
2022/04/06 00:05:00;;;;;;;8.68;3.65;;;;;;;;;;5094184;28;20031;-78
2022/04/06 00:07:26;;;;;;;8.00;2.97;;;;;;;;;;5058932;28;20024;-77
2022/04/06 00:09:51;;;;;;;6.43;2.80;;;;;;;;;;5075664;28;20122;-77
2022/04/06 00:12:17;;;;;;;8.48;2.72;;;;;;;;;;5093959;28;20489;-78
2022/04/06 00:14:42;;;;;;;7.13;2.30;;;;;;;;;;5093647;28;20122;-77
2022/04/06 00:17:07;;;;;;;8.77;2.92;;;;;;;;;;5093174;28;20020;-77
2022/04/06 00:19:33;;;;;;;7.20;3.35;;;;;;;;;;5075303;28;20254;-77
2022/04/06 00:21:59;;;;;;;7.93;2.53;;;;;;;;;;5058644;28;20502;-77
2022/04/06 00:24:24;;;;;;;8.60;2.80;;;;;;;;;;5075414;28;20027;-77
2022/04/06 00:26:50;;;;;;;6.60;2.30;;;;;;;;;;5093302;28;20024;-77
2022/04/06 00:29:15;;;;;;;6.78;2.90;;;;;;;;;;5075180;28;20107;-77
2022/04/06 00:31:40;;;;;;;6.07;2.80;;;;;;;;;;5093353;28;20417;-77
2022/04/06 00:34:06;;;;;;;9.38;2.63;;;;;;;;;;5093355;28;20032;-78
2022/04/06 00:36:31;;;;;;;7.40;2.42;;;;;;;;;;5075421;28;20028;-77
2022/04/06 00:38:57;;;;;;;8.77;2.67;;;;;;;;;;5058230;28;20036;-78
2022/04/06 00:41:22;;;;;;;6.35;2.85;;;;;;;;;;5093331;28;20035;-78
2022/04/06 00:44:13;;;;;;;10.60;2.92;;;;;;;;;;5093125;28;20028;-78
2022/04/06 00:46:40;;;;;;;5.60;2.28;;;;;;;;;;5092820;28;20127;-78
2022/04/06 00:49:11;;;;;;;8.48;2.95;;;;;;;;;;5057873;28;20039;-78
2022/04/06 00:51:37;;;;;;;5.47;2.40;;;;;;;;;;5093104;28;20032;-78
2022/04/06 00:54:04;;;;;;;7.78;2.53;;;;;;;;;;5093103;28;20074;-79
2022/04/06 00:56:29;;;;;;;7.18;2.85;;;;;;;;;;5074675;28;20028;-78
2022/04/06 00:58:55;;;;;;;4.80;2.55;;;;;;;;;;5092774;28;20044;-78
2022/04/06 01:01:21;;;;;;;10.43;2.78;;;;;;;;;;5074868;28;20032;-78
2022/04/06 01:03:46;;;;;;;5.15;2.30;;;;;;;;;;5093087;28;20093;-78
2022/04/06 01:06:12;;;;;;;7.30;2.50;;;;;;;;;;5092984;28;20364;-78
2022/04/06 01:08:37;;;;;;;9.88;2.75;;;;;;;;;;5092508;28;20028;-78
2022/04/06 01:11:02;;;;;;;8.02;2.55;;;;;;;;;;5074768;28;20032;-78
2022/04/06 01:13:28;;;;;;;9.05;2.80;;;;;;;;;;5092694;28;20158;-78
2022/04/06 01:15:54;;;;;;;7.68;2.63;;;;;;;;;;5074544;28;20024;-78
2022/04/06 01:18:19;;;;;;;6.72;2.75;;;;;;;;;;5092636;28;20136;-78
2022/04/06 01:20:44;;;;;;;6.43;2.88;;;;;;;;;;5092684;28;20073;-78
2022/04/06 01:23:10;;;;;;;8.10;2.90;;;;;;;;;;5074626;28;20335;-78
2022/04/06 01:25:38;;;;;;;7.85;2.85;;;;;;;;;;5074689;28;20473;-78
2022/04/06 01:28:04;;;;;;;6.95;2.50;;;;;;;;;;5092774;28;20047;-78
2022/04/06 01:30:29;;;;;;;7.95;3.08;;;;;;;;;;5074548;28;20086;-78
2022/04/06 01:32:57;;;;;;;9.13;2.70;;;;;;;;;;5074363;28;20030;-77
2022/04/06 01:35:23;;;;;;;6.97;2.60;;;;;;;;;;5074386;28;20020;-78
2022/04/06 01:37:48;;;;;;;7.40;2.72;;;;;;;;;;5057686;28;20383;-77
2022/04/06 01:40:14;;;;;;;6.45;2.38;;;;;;;;;;5075194;28;20035;-78
2022/04/06 01:42:39;;;;;;;7.43;2.80;;;;;;;;;;5092599;28;20055;-78
2022/04/06 01:45:05;;;;;;;6.53;2.45;;;;;;;;;;5092305;28;20107;-78
2022/04/06 01:47:31;;;;;;;9.80;2.72;;;;;;;;;;5092268;28;20032;-78
2022/04/06 01:52:40;;;;;;;6.10;2.50;;;;;;;;;;5077014;28;20070;-78
2022/04/06 01:55:08;;;;;;;9.98;2.88;;;;;;;;;;5092826;28;20064;-78
2022/04/06 01:57:34;;;;;;;6.00;2.38;;;;;;;;;;5057425;28;20024;-77
2022/04/06 02:00:00;;;;;;;6.28;2.53;;;;;;;;;;5074851;28;20028;-76
2022/04/06 02:02:28;;;;;;;5.55;2.55;;;;;;;;;;5094981;28;20036;-77
2022/04/06 02:04:54;;;;;;;8.70;2.50;;;;;;;;;;5078261;28;20016;-77
2022/04/06 02:07:19;;;;;;;8.65;2.50;;;;;;;;;;5096635;28;20027;-77
2022/04/06 02:09:45;;;;;;;7.75;2.95;;;;;;;;;;5078012;28;20403;-78
2022/04/06 02:12:11;;;;;;;6.95;2.42;;;;;;;;;;5078240;28;20103;-79
2022/04/06 02:14:41;;;;;;;5.65;2.63;;;;;;;;;;5061286;28;20056;-77
2022/04/06 02:17:07;;;;;;;7.80;2.60;;;;;;;;;;5077722;28;20024;-78
2022/04/06 02:19:34;;;;;;;12.05;2.50;;;;;;;;;;5044636;28;20036;-78
2022/04/06 02:21:59;;;;;;;6.68;2.75;;;;;;;;;;5078058;28;20016;-77
2022/04/06 02:24:24;;;;;;;12.50;2.65;;;;;;;;;;5096288;28;20031;-79
2022/04/06 02:26:50;;;;;;;6.20;2.50;;;;;;;;;;5095786;28;20034;-77
2022/04/06 02:29:15;;;;;;;7.88;2.80;;;;;;;;;;5060951;28;20116;-76
2022/04/06 02:31:41;;;;;;;9.43;2.65;;;;;;;;;;5044119;28;20036;-77
2022/04/06 02:34:06;;;;;;;6.78;2.35;;;;;;;;;;5095905;28;20051;-77
2022/04/06 02:36:32;;;;;;;5.38;2.10;;;;;;;;;;5095741;28;20020;-77
2022/04/06 02:38:59;;;;;;;5.68;2.17;;;;;;;;;;5077876;28;20044;-76
2022/04/06 02:41:25;;;;;;;7.10;2.33;;;;;;;;;;5077867;28;20028;-76
2022/04/06 02:43:50;;;;;;;6.60;2.65;;;;;;;;;;5060607;28;20546;-78
2022/04/06 02:46:16;;;;;;;5.05;2.22;;;;;;;;;;5077124;28;20051;-78
2022/04/06 02:48:41;;;;;;;11.80;2.28;;;;;;;;;;5077203;28;20055;-77
2022/04/06 02:51:07;;;;;;;8.07;2.55;;;;;;;;;;5077655;28;20032;-78
2022/04/06 02:53:32;;;;;;;5.40;2.20;;;;;;;;;;5077671;28;20031;-77
2022/04/06 02:55:57;;;;;;;5.43;2.08;;;;;;;;;;5095670;28;20024;-77
2022/04/06 02:58:23;;;;;;;7.07;2.47;;;;;;;;;;5095413;28;20035;-78
2022/04/06 03:00:48;;;;;;;6.43;2.50;;;;;;;;;;5095304;28;20056;-78
2022/04/06 03:03:14;;;;;;;7.90;2.33;;;;;;;;;;5095341;28;20060;-78
2022/04/06 03:05:39;;;;;;;7.05;2.00;;;;;;;;;;5077556;28;20355;-79
2022/04/06 03:08:06;;;;;;;6.15;2.10;;;;;;;;;;5095128;28;20027;-79
2022/04/06 03:10:32;;;;;;;7.25;2.47;;;;;;;;;;5095226;28;20062;-79
2022/04/06 03:12:57;;;;;;;5.30;2.00;;;;;;;;;;5076953;28;20058;-79
2022/04/06 03:15:22;;;;;;;4.97;2.10;;;;;;;;;;5095292;28;20055;-79
2022/04/06 03:17:48;;;;;;;6.63;2.00;;;;;;;;;;5076596;28;20131;-79
2022/04/06 03:20:14;;;;;;;9.68;2.22;;;;;;;;;;5094927;28;20024;-79
2022/04/06 03:22:40;;;;;;;18.90;2.42;;;;;;;;;;5096081;28;20116;-79
2022/04/06 03:25:06;;;;;;;7.65;2.25;;;;;;;;;;5076832;28;20016;-79
2022/04/06 03:27:33;;;;;;;4.70;1.70;;;;;;;;;;5076963;28;20103;-80
2022/04/06 03:29:59;;;;;;;7.38;1.83;;;;;;;;;;5077406;28;20043;-80
2022/04/06 03:32:24;;;;;;;6.50;1.77;;;;;;;;;;5076523;28;20363;-79
2022/04/06 03:34:50;;;;;;;12.20;2.00;;;;;;;;;;5077322;28;20028;-79
2022/04/06 03:37:15;;;;;;;4.60;1.75;;;;;;;;;;5076664;28;20048;-79
2022/04/06 03:39:40;;;;;;;8.50;1.73;;;;;;;;;;5094927;28;20027;-80
2022/04/06 03:42:06;;;;;;;5.50;1.67;;;;;;;;;;5076933;28;20028;-79
2022/04/06 03:44:31;;;;;;;5.43;1.77;;;;;;;;;;5043388;28;20043;-79
2022/04/06 03:46:57;;;;;;;7.95;1.80;;;;;;;;;;5094570;28;20102;-79
2022/04/06 03:49:22;;;;;;;3.70;1.58;;;;;;;;;;5076351;28;20024;-78
2022/04/06 03:51:48;;;;;;;6.57;1.88;;;;;;;;;;5094386;28;20035;-78
2022/04/06 03:54:13;;;;;;;6.97;1.92;;;;;;;;;;5075914;28;20036;-78
2022/04/06 03:56:39;;;;;;;3.30;1.27;;;;;;;;;;5094217;28;20028;-78
2022/04/06 03:59:04;;;;;;;7.18;1.98;;;;;;;;;;5094295;28;20046;-78
2022/04/06 04:01:30;;;;;;;4.32;1.30;;;;;;;;;;5075695;28;20404;-78
2022/04/06 04:03:56;;;;;;;5.90;1.70;;;;;;;;;;5093806;28;20475;-78
2022/04/06 04:06:21;;;;;;;4.53;1.75;;;;;;;;;;5094089;28;20028;-79
2022/04/06 04:08:47;;;;;;;7.80;1.58;;;;;;;;;;5058848;28;20036;-79
2022/04/06 04:11:12;;;;;;;5.10;1.45;;;;;;;;;;5075603;28;20097;-79
2022/04/06 04:13:37;;;;;;;3.00;1.38;;;;;;;;;;5093805;28;20466;-79
2022/04/06 04:16:03;;;;;;;2.38;1.33;;;;;;;;;;5058888;28;20378;-79
2022/04/06 04:18:29;;;;;;;5.25;1.30;;;;;;;;;;5093388;28;20052;-78
2022/04/06 04:21:31;;;;;;;5.28;1.80;;;;;;;;;;5093476;28;20039;-80
2022/04/06 04:23:40;;;;;;;4.10;1.40;;;;;;;;;;5093234;28;20032;-80
2022/04/06 04:26:05;;;;;;;3.63;1.23;;;;;;;;;;5093578;28;20090;-80
2022/04/06 04:28:31;;;;;;;5.10;1.65;;;;;;;;;;5093971;28;20077;-80
2022/04/06 04:30:56;;;;;;;13.10;1.52;;;;;;;;;;5093698;28;20038;-80
2022/04/06 04:33:21;;;;;;;9.90;1.67;;;;;;;;;;5076384;28;20054;-80
2022/04/06 04:35:47;;;;;;;6.22;1.85;;;;;;;;;;5094803;28;20068;-80
2022/04/06 04:38:13;;;;;;;4.35;1.45;;;;;;;;;;5094914;28;20344;-81
2022/04/06 04:40:38;;;;;;;4.78;1.17;;;;;;;;;;5076585;28;20035;-80
2022/04/06 04:43:04;;;;;;;3.88;1.30;;;;;;;;;;5076299;28;20088;-80
2022/04/06 04:45:29;;;;;;;4.55;1.70;;;;;;;;;;5094546;28;20039;-80
2022/04/06 04:47:55;;;;;;;4.70;1.63;;;;;;;;;;5094544;28;20074;-80
2022/04/06 04:50:20;;;;;;;3.30;1.45;;;;;;;;;;5076697;28;20035;-80
2022/04/06 04:52:46;;;;;;;4.80;1.02;;;;;;;;;;5076171;28;20039;-80
2022/04/06 04:55:11;;;;;;;5.72;1.42;;;;;;;;;;5094486;28;20032;-82
2022/04/06 04:57:37;;;;;;;7.50;1.33;;;;;;;;;;5043805;28;20036;-81
2022/04/06 05:00:06;;;;;;;4.75;1.38;;;;;;;;;;5079246;28;20035;-79
2022/04/06 05:02:33;;;;;;;2.53;1.20;;;;;;;;;;5098522;28;20052;-84
2022/04/06 05:04:58;;;;;;;17.35;3.22;;;;;;;;;;5078654;28;20077;-82
2022/04/06 05:07:24;;;;;;;21.35;2.97;;;;;;;;;;5078868;28;20077;-82
2022/04/06 05:09:49;;;;;;;17.27;2.97;;;;;;;;;;5078429;28;20035;-81
2022/04/06 05:12:15;;;;;;;17.02;2.95;;;;;;;;;;5096752;28;20036;-82
2022/04/06 05:14:41;;;;;;;11.93;2.53;;;;;;;;;;5061611;28;20032;-83
2022/04/06 05:17:06;;;;;;;11.88;2.95;;;;;;;;;;5060573;28;20032;-82
2022/04/06 05:19:32;;;;;;;15.85;3.20;;;;;;;;;;5095072;28;20044;-83
2022/04/06 05:21:59;;;;;;;7.93;2.20;;;;;;;;;;5095411;28;20107;-82
2022/04/06 05:24:25;;;;;;;8.88;2.28;;;;;;;;;;5077550;28;20048;-81
2022/04/06 05:26:50;;;;;;;14.88;2.40;;;;;;;;;;5095192;28;20020;-82
2022/04/06 05:29:16;;;;;;;5.75;1.92;;;;;;;;;;5095635;28;20036;-82
2022/04/06 05:31:41;;;;;;;6.25;2.13;;;;;;;;;;5095058;28;20043;-80
2022/04/06 05:34:07;;;;;;;7.80;2.20;;;;;;;;;;5094938;28;20032;-81
2022/04/06 05:36:32;;;;;;;8.05;2.38;;;;;;;;;;5076015;28;20020;-81
2022/04/06 05:38:58;;;;;;;5.28;1.70;;;;;;;;;;5077810;28;20463;-82
2022/04/06 05:41:24;;;;;;;4.35;1.50;;;;;;;;;;5060717;28;20063;-81
2022/04/06 05:43:49;;;;;;;6.45;2.00;;;;;;;;;;5077350;28;20028;-81
2022/04/06 05:46:14;;;;;;;6.18;1.75;;;;;;;;;;5077028;28;20074;-81
2022/04/06 05:48:40;;;;;;;4.80;1.65;;;;;;;;;;5076301;28;20036;-82
2022/04/06 05:51:06;;;;;;;6.75;1.40;;;;;;;;;;5095592;28;20032;-82
2022/04/06 05:53:31;;;;;;;4.95;1.70;;;;;;;;;;5094880;28;20052;-82
2022/04/06 05:55:56;;;;;;;4.15;1.40;;;;;;;;;;5094825;28;20031;-85
2022/04/06 05:58:22;;;;;;;4.80;1.75;;;;;;;;;;5077631;28;20475;-86
2022/04/06 06:00:47;;;;;;;6.95;1.38;;;;;;;;;;5059690;28;20036;-86
2022/04/06 06:03:12;;;;;;;3.40;1.55;;;;;;;;;;5095293;28;20024;-87
2022/04/06 06:05:38;;;;;;;4.82;1.33;;;;;;;;;;5095333;28;20028;-86
2022/04/06 06:08:04;;;;;;;4.95;1.48;;;;;;;;;;5061070;28;20035;-85
2022/04/06 06:10:29;;;;;;;5.68;1.77;;;;;;;;;;5061457;28;20467;-85
2022/04/06 06:12:55;;;;;;;3.95;1.35;;;;;;;;;;5096869;28;20032;-86
2022/04/06 06:15:22;;;;;;;4.70;1.23;;;;;;;;;;5062209;28;20077;-85
2022/04/06 06:17:47;;;;;;;4.97;1.30;;;;;;;;;;5048935;28;1304510;-87
2022/04/06 06:20:12;;;;;;;3.25;1.20;;;;;;;;;;5077495;28;20048;-84
2022/04/06 06:22:38;;;;;;;6.75;1.42;;;;;;;;;;5077977;28;20032;-87
2022/04/06 06:25:04;;;;;;;7.97;1.83;;;;;;;;;;5061369;28;20024;-87
2022/04/06 06:27:30;;;;;;;4.45;1.60;;;;;;;;;;5096940;28;20115;-86
2022/04/06 06:29:55;;;;;;;4.53;1.80;;;;;;;;;;5045282;28;20031;-86
2022/04/06 06:32:21;;;;;;;5.80;1.30;;;;;;;;;;5044438;28;20107;-88
2022/04/06 06:34:46;;;;;;;5.43;1.50;;;;;;;;;;5044884;28;20055;-87
2022/04/06 06:37:11;;;;;;;7.18;1.90;;;;;;;;;;5075526;28;20082;-88
2022/04/06 06:39:37;;;;;;;9.02;1.70;;;;;;;;;;5058517;28;20028;-89
2022/04/06 06:42:04;;;;;;;6.72;1.77;;;;;;;;;;5075613;28;20507;-89
2022/04/06 06:44:30;;;;;;;3.78;1.73;;;;;;;;;;5058636;28;20032;-89
2022/04/06 06:46:55;;;;;;;7.97;1.75;;;;;;;;;;5075003;28;20069;-87
2022/04/06 06:49:20;;;;;;;12.43;2.05;;;;;;;;;;5097050;28;20395;-87
2022/04/06 06:51:46;;;;;;;6.32;1.88;;;;;;;;;;5080645;28;20039;-86
2022/04/06 06:54:11;;;;;;;7.72;1.75;;;;;;;;;;5062459;28;20024;-85
2022/04/06 06:56:37;;;;;;;6.90;1.58;;;;;;;;;;5087753;28;20099;-86
2022/04/06 06:59:02;;;;;;;5.97;1.67;;;;;;;;;;5109469;28;20024;-85
2022/04/06 07:01:28;;;;;;;15.63;2.28;;;;;;;;;;5093059;28;20028;-85
2022/04/06 07:03:53;;;;;;;3.72;1.45;;;;;;;;;;5083971;28;20028;-87
2022/04/06 07:06:18;;;;;;;6.10;1.88;;;;;;;;;;5066993;28;20028;-88
2022/04/06 07:08:44;;;;;;;4.57;1.58;;;;;;;;;;5062799;28;20036;-89
2022/04/06 07:11:09;;;;;;;9.20;2.20;;;;;;;;;;5080726;28;20043;-88
2022/04/06 07:13:35;;;;;;;3.75;1.80;;;;;;;;;;5079588;28;20032;-84
2022/04/06 07:16:02;;;;;;;6.45;1.70;;;;;;;;;;5079028;28;20024;-85
2022/04/06 07:18:28;;;;;;;5.88;1.50;;;;;;;;;;5096800;28;20129;-86
2022/04/06 07:20:54;;;;;;;10.05;1.40;;;;;;;;;;5078965;28;20467;-86
2022/04/06 07:23:19;;;;;;;5.43;2.17;;;;;;;;;;5062180;28;20508;-86
2022/04/06 07:25:45;;;;;;;5.45;2.00;;;;;;;;;;5079535;28;20451;-88
2022/04/06 07:28:10;;;;;;;5.00;1.40;;;;;;;;;;5078830;28;20028;-87
2022/04/06 07:30:35;;;;;;;7.35;1.42;;;;;;;;;;5078750;28;20047;-87
2022/04/06 07:33:01;;;;;;;8.93;1.77;;;;;;;;;;5078569;28;20048;-85
2022/04/06 07:35:27;;;;;;;16.15;1.50;;;;;;;;;;5096206;28;20039;-85
2022/04/06 07:37:52;;;;;;;3.70;1.20;;;;;;;;;;5077618;28;20031;-85
2022/04/06 07:40:23;;;;;;;4.40;1.45;;;;;;;;;;5077527;28;20036;-85
2022/04/06 07:42:49;;;;;;;8.18;1.42;;;;;;;;;;5077720;28;20027;-86
2022/04/06 07:45:19;;;;;;;10.88;1.65;;;;;;;;;;5060867;28;20171;-85
2022/04/06 07:47:46;;;;;;;10.55;1.95;;;;;;;;;;5077387;28;20387;-87
2022/04/06 07:50:15;;;;;;;7.35;1.90;;;;;;;;;;5077263;28;20077;-85
2022/04/06 07:52:41;;;;;;;5.18;1.58;;;;;;;;;;5081294;28;20027;-85
2022/04/06 07:55:08;;;;;;;9.35;1.45;;;;;;;;;;5077465;28;20023;-85
2022/04/06 07:57:34;;;;;;;3.60;1.17;;;;;;;;;;5060753;28;20063;-86
2022/04/06 08:00:09;;;;;;;6.50;1.30;;;;;;;;;;5060087;28;20394;-87
2022/04/06 08:02:35;;;;;;;4.78;1.27;;;;;;;;;;5061351;28;20056;-87
2022/04/06 08:05:00;;;;;;;8.05;1.65;;;;;;;;;;5061173;28;20035;-89
2022/04/06 08:07:26;;;;;;;7.70;1.50;;;;;;;;;;5078430;28;20024;-85
2022/04/06 08:09:51;;;;;;;5.80;1.48;;;;;;;;;;5078101;28;20028;-88
2022/04/06 08:12:16;;;;;;;7.60;1.80;;;;;;;;;;5077650;28;20059;-89
2022/04/06 08:14:42;;;;;;;3.40;1.13;;;;;;;;;;5077138;28;20035;-90
2022/04/06 08:17:07;;;;;;;3.42;1.00;;;;;;;;;;5092323;28;20398;-88
2022/04/06 08:19:33;;;;;;;3.47;1.20;;;;;;;;;;5074711;28;20529;-85
2022/04/06 08:21:58;;;;;;;6.53;1.40;;;;;;;;;;5074047;28;20047;-88
2022/04/06 08:24:24;;;;;;;16.65;1.88;;;;;;;;;;5058260;28;20032;-86
2022/04/06 08:26:49;;;;;;;7.88;1.00;;;;;;;;;;5075122;28;20073;-86
2022/04/06 08:29:15;;;;;;;4.78;1.33;;;;;;;;;;5048076;28;20106;-91
2022/04/06 08:31:40;;;;;;;7.45;1.48;;;;;;;;;;5071574;28;20028;-91
2022/04/06 08:34:06;;;;;;;5.20;1.50;;;;;;;;;;5059008;28;20193;-92
2022/04/06 08:36:34;;;;;;;4.00;1.00;;;;;;;;;;5074019;28;20029;-88
2022/04/06 08:39:01;;;;;;;7.38;1.10;;;;;;;;;;5075614;28;20403;-88
2022/04/06 08:41:28;;;;;;;3.30;1.05;;;;;;;;;;5073952;28;20056;-88
2022/04/06 08:43:54;;;;;;;2.67;1.10;;;;;;;;;;5073934;28;20154;-85
2022/04/06 08:46:20;;;;;;;4.25;1.10;;;;;;;;;;5055555;28;20035;-85
2022/04/06 08:48:51;;;;;;;7.20;1.55;;;;;;;;;;5073874;28;20029;-85
2022/04/06 08:51:17;;;;;;;1.75;0.98;;;;;;;;;;5072278;28;20403;-88
2022/04/06 08:53:44;;;;;;;4.97;1.00;;;;;;;;;;5072420;28;20111;-89
2022/04/06 08:56:12;;;;;;;3.90;1.10;;;;;;;;;;5055719;28;20029;-89
2022/04/06 08:58:38;;;;;;;3.47;1.08;;;;;;;;;;5038522;28;20232;-87
2022/04/06 09:01:04;;;;;;;4.65;1.40;;;;;;;;;;5033420;28;20029;-89
2022/04/06 09:03:30;;;;;;;2.10;0.98;;;;;;;;;;5036202;28;20033;-88
2022/04/06 09:06:00;;;;;;;5.47;1.10;;;;;;;;;;5033546;28;20087;-88
2022/04/06 09:08:44;;;;;;;2.97;1.23;;;;;;;;;;5032480;28;20034;-88
2022/04/06 09:11:11;;;;;;;2.17;0.93;;;;;;;;;;5035479;28;20557;-91
2022/04/06 09:13:39;;;;;;;2.97;1.10;;;;;;;;;;5033837;28;20495;-87
2022/04/06 09:16:09;;;;;;;2.30;1.17;;;;;;;;;;5032912;28;20127;-84
2022/04/06 09:18:36;;;;;;;3.92;1.10;;;;;;;;;;5044730;28;20040;-86
2022/04/06 09:21:02;;;;;;;3.65;1.50;;;;;;;;;;5073549;28;20024;-85
2022/04/06 09:23:32;;;;;;;5.60;2.05;;;;;;;;;;5056119;28;20040;-85
2022/04/06 09:26:13;;;;;;;3.78;1.40;;;;;;;;;;5056537;28;20399;-85
2022/04/06 09:28:45;;;;;;;1.75;1.00;;;;;;;;;;5039266;28;20035;-84
2022/04/06 09:31:17;;;;;;;2.97;1.13;;;;;;;;;;5056402;28;20021;-84
2022/04/06 09:33:55;;;;;;;5.20;1.40;;;;;;;;;;5057955;28;20024;-84
2022/04/06 09:36:21;;;;;;;4.80;1.20;;;;;;;;;;5056660;28;20025;-85
2022/04/06 09:38:51;;;;;;;3.10;0.95;;;;;;;;;;5056307;28;20378;-87
2022/04/06 09:41:18;;;;;;;4.93;1.27;;;;;;;;;;5057025;28;20035;-86
2022/04/06 09:43:48;;;;;;;4.80;1.55;;;;;;;;;;5057102;28;20082;-86
2022/04/06 09:49:14;;;;;;;11.75;2.53;;;;;;;;;;5058777;28;20390;-86
2022/04/06 09:51:43;;;;;;;3.75;1.15;;;;;;;;;;5056125;28;20020;-85
2022/04/06 09:54:12;;;;;;;3.05;1.17;;;;;;;;;;5039293;28;20032;-86
2022/04/06 09:56:38;;;;;;;10.00;1.33;;;;;;;;;;5056218;28;20029;-85
2022/04/06 09:59:04;;;;;;;5.38;1.27;;;;;;;;;;5056065;28;20031;-84
2022/04/06 10:01:32;;;;;;;4.10;1.20;;;;;;;;;;5055688;28;20024;-86
2022/04/06 10:04:01;;;;;;;2.30;1.17;;;;;;;;;;5038967;28;20032;-85
2022/04/06 10:06:30;;;;;;;2.10;0.88;;;;;;;;;;5038615;28;20033;-85
2022/04/06 10:08:56;;;;;;;5.40;1.30;;;;;;;;;;5039114;28;20067;-85
2022/04/06 10:11:22;;;;;;;2.70;1.20;;;;;;;;;;5073615;28;20479;-85
2022/04/06 10:13:48;;;;;;;2.22;1.00;;;;;;;;;;5055268;28;20127;-86
2022/04/06 10:16:17;;;;;;;3.33;1.25;;;;;;;;;;5038619;28;20380;-86
2022/04/06 10:18:42;;;;;;;5.07;1.30;;;;;;;;;;5055174;28;20052;-84
2022/04/06 10:21:22;;;;;;;3.80;1.15;;;;;;;;;;5074395;28;20047;-85
2022/04/06 10:24:20;;;;;;;5.35;1.58;;;;;;;;;;5041895;28;20467;-86
2022/04/06 10:27:00;;;;;;;2.67;1.30;;;;;;;;;;5072880;28;20540;-86
2022/04/06 10:29:26;;;;;;;5.50;1.30;;;;;;;;;;5099828;28;20083;-85
2022/04/06 10:31:51;;;;;;;5.47;1.70;;;;;;;;;;5100395;28;20059;-85
2022/04/06 10:34:25;;;;;;;1.83;0.80;;;;;;;;;;5066974;28;20028;-85
2022/04/06 10:37:20;;;;;;;5.72;1.10;;;;;;;;;;5068560;28;20032;-83
2022/04/06 10:39:53;;;;;;;3.78;1.10;;;;;;;;;;5074143;28;20055;-84
2022/04/06 10:42:37;;;;;;;3.67;1.30;;;;;;;;;;5097509;28;20107;-84
2022/04/06 10:45:05;;;;;;;5.00;1.23;;;;;;;;;;5111874;28;20095;-86
2022/04/06 10:47:32;;;;;;;4.30;1.23;;;;;;;;;;5092466;28;20024;-87
2022/04/06 10:50:13;;;;;;;4.55;1.40;;;;;;;;;;5089533;28;20024;-88
2022/04/06 10:52:39;;;;;;;4.55;1.40;;;;;;;;;;5084109;28;20092;-87
2022/04/06 10:55:22;;;;;;;4.53;1.30;;;;;;;;;;5048331;28;20448;-87
2022/04/06 10:58:03;;;;;;;4.05;1.85;;;;;;;;;;5080668;28;20032;-88
2022/04/06 11:00:30;;;;;;;4.68;1.25;;;;;;;;;;5098690;28;20396;-87
2022/04/06 11:03:20;;;;;;;6.57;1.38;;;;;;;;;;5080487;28;20027;-87
2022/04/06 11:05:50;;;;;;;4.60;1.13;;;;;;;;;;5097767;28;20093;-89
2022/04/06 11:11:44;;;;;;;5.82;1.40;;;;;;;;;;5082348;28;20027;-87
2022/04/06 11:14:11;;;;;;;2.83;1.20;;;;;;;;;;5062794;28;20483;-88
2022/04/06 11:16:46;;;;;;;3.65;1.48;;;;;;;;;;5063164;28;20111;-88
2022/04/06 11:19:14;;;;;;;8.07;1.67;;;;;;;;;;5075413;28;20102;-87
2022/04/06 11:21:51;;;;;;;5.10;1.38;;;;;;;;;;5076538;28;20048;-88
2022/04/06 11:24:21;;;;;;;6.68;1.30;;;;;;;;;;5072861;28;20020;-84
2022/04/06 11:26:47;;;;;;;6.45;1.52;;;;;;;;;;5074491;28;20020;-84
2022/04/06 11:29:13;;;;;;;9.38;1.50;;;;;;;;;;5058915;28;20021;-87
2022/04/06 11:31:58;;;;;;;8.07;1.45;;;;;;;;;;5075602;28;20020;-88
2022/04/06 11:34:37;;;;;;;5.35;1.80;;;;;;;;;;5075159;28;20032;-86
2022/04/06 11:37:04;;;;;;;3.75;1.30;;;;;;;;;;5059026;28;20029;-88
2022/04/06 11:39:30;;;;;;;6.07;2.17;;;;;;;;;;5076782;28;20036;-87
2022/04/06 11:41:56;;;;;;;4.53;1.50;;;;;;;;;;5076180;28;20078;-88
2022/04/06 11:44:24;;;;;;;6.88;1.58;;;;;;;;;;5077167;28;20471;-85
2022/04/06 11:46:50;;;;;;;5.10;1.38;;;;;;;;;;5076841;28;20075;-88
2022/04/06 11:49:28;;;;;;;4.95;1.83;;;;;;;;;;5078498;28;20048;-87
2022/04/06 11:51:54;;;;;;;6.30;1.55;;;;;;;;;;5058025;28;20028;-88
2022/04/06 11:54:24;;;;;;;6.70;1.45;;;;;;;;;;5075751;28;20031;-90
2022/04/06 11:56:51;;;;;;;4.88;1.52;;;;;;;;;;5042117;28;20395;-89
2022/04/06 11:59:18;;;;;;;4.40;1.13;;;;;;;;;;5077398;28;20036;-89
2022/04/06 12:01:46;;;;;;;2.47;1.10;;;;;;;;;;5074840;28;20048;-89
2022/04/06 12:04:23;;;;;;;2.78;1.35;;;;;;;;;;5075541;28;20059;-87
2022/04/06 12:06:49;;;;;;;4.75;1.33;;;;;;;;;;5060720;28;20034;-87
2022/04/06 12:09:15;;;;;;;2.97;1.50;;;;;;;;;;5076433;28;20452;-86
2022/04/06 12:11:40;;;;;;;2.63;1.20;;;;;;;;;;5074647;28;20078;-86
2022/04/06 12:14:11;;;;;;;4.45;1.73;;;;;;;;;;5078478;28;20039;-87
2022/04/06 12:16:41;;;;;;;5.50;1.33;;;;;;;;;;5058223;28;20024;-85
2022/04/06 12:19:13;;;;;;;2.25;1.17;;;;;;;;;;5074586;28;20045;-88
2022/04/06 12:21:43;;;;;;;12.98;1.65;;;;;;;;;;5074974;28;20046;-87
2022/04/06 12:24:09;;;;;;;1.65;1.20;;;;;;;;;;5076016;28;20029;-87
2022/04/06 12:26:45;;;;;;;7.60;1.63;;;;;;;;;;5058218;28;20451;-86
2022/04/06 12:29:15;;;;;;;3.60;1.35;;;;;;;;;;5073911;28;20021;-86
2022/04/06 12:31:42;;;;;;;2.55;1.20;;;;;;;;;;5059670;28;20027;-88
2022/04/06 12:34:09;;;;;;;4.28;1.60;;;;;;;;;;5075207;28;20051;-88
2022/04/06 12:36:34;;;;;;;7.47;1.00;;;;;;;;;;5058082;28;20052;-88
2022/04/06 12:39:14;;;;;;;4.47;1.20;;;;;;;;;;5075788;28;20097;-87
2022/04/06 12:42:06;;;;;;;5.78;1.50;;;;;;;;;;5060135;28;20032;-92
2022/04/06 12:44:36;;;;;;;6.00;1.50;;;;;;;;;;5075757;28;20024;-87
2022/04/06 12:47:03;;;;;;;2.40;1.25;;;;;;;;;;5074622;28;20031;-85
2022/04/06 12:49:36;;;;;;;2.70;1.13;;;;;;;;;;5059485;28;20044;-88
2022/04/06 12:52:14;;;;;;;4.88;1.10;;;;;;;;;;5075348;28;20161;-85
2022/04/06 12:54:45;;;;;;;1.85;1.50;;;;;;;;;;5075177;28;20031;-84
2022/04/06 12:57:29;;;;;;;6.93;1.50;;;;;;;;;;5075331;28;20021;-89
2022/04/06 13:00:13;;;;;;;2.22;1.30;;;;;;;;;;5080770;28;20024;-89
2022/04/06 13:02:49;;;;;;;3.10;1.35;;;;;;;;;;5057393;28;20107;-89
2022/04/06 13:05:16;;;;;;;6.40;1.52;;;;;;;;;;5057970;28;20020;-89
2022/04/06 13:07:43;;;;;;;2.70;1.30;;;;;;;;;;5073629;28;20029;-88
2022/04/06 13:10:15;;;;;;;4.75;1.38;;;;;;;;;;5075089;28;20055;-87
2022/04/06 13:12:44;;;;;;;11.85;1.67;;;;;;;;;;5057262;28;20111;-87
2022/04/06 13:15:12;;;;;;;1.83;1.15;;;;;;;;;;5076705;28;20032;-86
2022/04/06 13:17:38;;;;;;;3.58;1.20;;;;;;;;;;5057932;28;20048;-86
2022/04/06 13:20:10;;;;;;;1.80;1.23;;;;;;;;;;5090717;28;20048;-85
2022/04/06 13:22:36;;;;;;;4.55;1.25;;;;;;;;;;5078005;28;20050;-86
2022/04/06 13:25:03;;;;;;;3.20;1.40;;;;;;;;;;5059979;28;20024;-85
2022/04/06 13:27:28;;;;;;;2.28;1.20;;;;;;;;;;5097670;28;20028;-88
2022/04/06 13:29:54;;;;;;;3.67;1.30;;;;;;;;;;5060026;28;20035;-87
2022/04/06 13:32:20;;;;;;;3.40;1.50;;;;;;;;;;5078260;28;20054;-85
2022/04/06 13:34:48;;;;;;;4.43;1.35;;;;;;;;;;5096503;28;20502;-88
2022/04/06 13:37:15;;;;;;;4.03;1.30;;;;;;;;;;5096654;28;20028;-83
2022/04/06 13:39:41;;;;;;;4.90;1.33;;;;;;;;;;5096828;28;20035;-86
2022/04/06 13:42:06;;;;;;;3.47;1.33;;;;;;;;;;5077665;28;20068;-88
2022/04/06 13:44:33;;;;;;;9.50;1.48;;;;;;;;;;5076780;28;20131;-88
2022/04/06 13:47:00;;;;;;;7.80;1.83;;;;;;;;;;5077545;28;20099;-87
2022/04/06 13:49:25;;;;;;;2.20;1.40;;;;;;;;;;5078898;28;20488;-85
2022/04/06 13:51:54;;;;;;;14.05;1.50;;;;;;;;;;5084309;28;20028;-88
2022/04/06 13:54:23;;;;;;;1.60;1.20;;;;;;;;;;5082972;28;20428;-86
2022/04/06 13:56:49;;;;;;;5.68;1.67;;;;;;;;;;5060736;28;20047;-87
2022/04/06 13:59:15;;;;;;;15.85;1.35;;;;;;;;;;5070721;28;20035;-85
2022/04/06 14:01:42;;;;;;;7.35;1.83;;;;;;;;;;5081024;28;20379;-86
2022/04/06 14:04:08;;;;;;;2.50;1.33;;;;;;;;;;5080025;28;20028;-85
2022/04/06 14:06:33;;;;;;;4.72;1.50;;;;;;;;;;5079731;28;20020;-85
2022/04/06 14:08:59;;;;;;;5.95;1.70;;;;;;;;;;5062691;28;20036;-85
2022/04/06 14:11:24;;;;;;;10.38;1.55;;;;;;;;;;5079644;28;20490;-86
2022/04/06 14:13:50;;;;;;;4.15;1.50;;;;;;;;;;5065675;28;20475;-86
2022/04/06 14:16:16;;;;;;;3.60;1.20;;;;;;;;;;5065142;28;20028;-85
2022/04/06 14:18:42;;;;;;;5.68;1.73;;;;;;;;;;5106555;28;20049;-84
2022/04/06 14:21:08;;;;;;;2.22;1.52;;;;;;;;;;5107280;28;20024;-85
2022/04/06 14:23:38;;;;;;;5.15;1.52;;;;;;;;;;5091116;28;20016;-84
2022/04/06 14:26:07;;;;;;;4.18;1.30;;;;;;;;;;5085410;28;20490;-84
2022/04/06 14:28:34;;;;;;;3.10;1.38;;;;;;;;;;5081502;28;20049;-85
2022/04/06 14:30:59;;;;;;;10.00;1.52;;;;;;;;;;5082864;28;20481;-85
2022/04/06 14:33:25;;;;;;;2.13;1.20;;;;;;;;;;5082898;28;20060;-85
2022/04/06 14:35:50;;;;;;;7.88;1.70;;;;;;;;;;5084838;28;20081;-85
2022/04/06 14:38:16;;;;;;;4.45;1.30;;;;;;;;;;5082810;28;20036;-84
2022/04/06 14:40:47;;;;;;;6.55;1.38;;;;;;;;;;5082028;28;20028;-85
2022/04/06 14:43:16;;;;;;;4.47;1.63;;;;;;;;;;5049098;28;20119;-85
2022/04/06 14:45:42;;;;;;;5.65;1.15;;;;;;;;;;5065174;28;20403;-85
2022/04/06 14:48:08;;;;;;;4.85;1.58;;;;;;;;;;5081634;28;20032;-85
2022/04/06 14:50:34;;;;;;;3.92;1.25;;;;;;;;;;5082028;28;20032;-85